Portada
METAR-TAF:

METAR-TAF

Aeroports :

Coffeyville, Kansas, Estats Units d'Amèrica

latitud: 37-05-28N, longitud: 095-33-59W, altitud: 229 m

Observació

L'informe es va fer fa 43 minuts, a les 22:52 UTC
Vent 11 kt del Sud amb ràfegues de 17 kt
Temperatura 27°C
Humitat 70%
Pressió 1008 hPa
Visibilitat: 16.1 km
Cel clar

METAR: KCFV 242252Z AUTO 17011G17KT 10SM CLR 27/21 A2977 RMK AO2 SLP073 T02720211

Hora: 18:35 (23:35 UTC)


TAF: manca

Observacions i pronòstics meteorològics de més de 4000 aeroports (METAR i TAF).

Les estacions disponibles són els punts grocs i vermells al mapa.

Posi el ratolí al punt desitjat per veure el nom de l'estació.

Feu clic per veure les observacions i els pronòstics meteorològics.

Per canviar el mapa: feu clic els botons verds amb una creu de color negre per apropar; al botó verd amb un guió per allunyar la imatge; o en les fletxes verdes per a mapes adjacents.


METAR-TAF: